createdAt,value
2022-11-25T00:01:26.032Z,38.78
2022-11-25T00:03:55.058Z,41.38
2022-11-25T00:06:30.428Z,37.55
2022-11-25T00:08:59.163Z,35.80
2022-11-25T00:11:27.177Z,36.25
2022-11-25T00:13:55.702Z,36.05
2022-11-25T00:16:24.496Z,36.22
2022-11-25T00:18:53.211Z,37.05
2022-11-25T00:21:21.901Z,37.15
2022-11-25T00:23:57.039Z,36.28
2022-11-25T00:26:25.204Z,36.72
2022-11-25T00:28:53.162Z,38.03
2022-11-25T00:31:22.307Z,38.13
2022-11-25T00:33:50.400Z,36.30
2022-11-25T00:36:20.245Z,36.72
2022-11-25T00:38:48.135Z,33.88
2022-11-25T00:41:34.452Z,35.75
2022-11-25T00:44:21.932Z,34.65
2022-11-25T00:46:49.571Z,35.40
2022-11-25T00:49:17.189Z,39.35
2022-11-25T00:51:44.810Z,36.08
2022-11-25T00:54:12.556Z,35.35
2022-11-25T00:56:40.193Z,40.85
2022-11-25T00:59:08.278Z,35.30
2022-11-25T01:01:36.579Z,34.80
2022-11-25T01:04:04.411Z,34.78
2022-11-25T01:06:34.055Z,35.97
2022-11-25T01:09:01.725Z,33.53
2022-11-25T01:11:29.381Z,34.75
2022-11-25T01:14:01.454Z,36.88
2022-11-25T01:16:30.030Z,33.33
2022-11-25T01:18:58.863Z,36.80
2022-11-25T01:21:27.863Z,32.97
2022-11-25T01:24:24.189Z,34.72
2022-11-25T01:27:16.649Z,35.42
2022-11-25T01:29:44.251Z,32.83
2022-11-25T01:32:14.178Z,34.33
2022-11-25T01:34:41.734Z,31.27
2022-11-25T01:37:09.541Z,33.53
2022-11-25T01:39:38.726Z,36.90
2022-11-25T01:42:06.518Z,36.30
2022-11-25T01:44:36.855Z,34.20
2022-11-25T01:47:07.800Z,35.35
2022-11-25T01:49:49.344Z,38.05
2022-11-25T01:52:24.455Z,35.50
2022-11-25T01:55:03.902Z,38.70
2022-11-25T01:57:35.015Z,34.47
2022-11-25T02:00:05.213Z,36.50
2022-11-25T02:02:45.043Z,37.05
2022-11-25T02:05:14.385Z,36.95
2022-11-25T02:07:43.585Z,33.80
2022-11-25T02:10:15.365Z,36.38
2022-11-25T02:12:45.251Z,31.02
2022-11-25T02:15:14.085Z,32.17
2022-11-25T02:17:42.960Z,33.72
2022-11-25T02:20:10.727Z,32.53
2022-11-25T02:22:42.837Z,33.08
2022-11-25T02:25:46.295Z,32.85
2022-11-25T02:28:17.966Z,29.85
2022-11-25T02:30:46.292Z,30.77
2022-11-25T02:33:14.993Z,31.30
2022-11-25T02:35:43.747Z,29.95
2022-11-25T02:38:31.513Z,31.30
2022-11-25T02:41:05.650Z,31.88
2022-11-25T02:43:33.405Z,29.08
2022-11-25T02:46:02.872Z,32.50
2022-11-25T02:49:00.763Z,33.28
2022-11-25T02:51:20.487Z,35.92
2022-11-25T02:53:48.155Z,32.78
2022-11-25T02:56:17.526Z,33.53
2022-11-25T02:58:45.263Z,37.58
2022-11-25T03:01:13.021Z,30.25
2022-11-25T03:03:40.779Z,31.88
2022-11-25T03:06:08.722Z,30.55
2022-11-25T03:08:36.854Z,31.25
2022-11-25T03:11:07.992Z,30.85
2022-11-25T03:13:35.690Z,28.30
2022-11-25T03:16:04.246Z,27.35
2022-11-25T03:18:31.870Z,28.50
2022-11-25T03:20:59.937Z,28.83
2022-11-25T03:23:27.686Z,27.95
2022-11-25T03:25:56.594Z,27.20
2022-11-25T03:28:24.273Z,30.90
2022-11-25T03:30:52.025Z,26.20
2022-11-25T03:33:19.731Z,29.02
2022-11-25T03:35:49.102Z,29.50
2022-11-25T03:38:16.682Z,26.23
2022-11-25T03:40:44.248Z,27.73
2022-11-25T03:43:13.046Z,27.70
2022-11-25T03:45:43.341Z,27.95
2022-11-25T03:48:11.111Z,26.02
2022-11-25T03:50:39.027Z,29.27
2022-11-25T03:53:06.620Z,25.65
2022-11-25T03:55:34.205Z,28.35
2022-11-25T03:58:01.761Z,26.75
2022-11-25T04:00:30.511Z,26.77
2022-11-25T04:03:03.203Z,27.52
2022-11-25T04:05:33.058Z,45.33
2022-11-25T04:08:05.697Z,30.70
2022-11-25T04:10:34.767Z,25.23
2022-11-25T04:13:02.936Z,24.63
2022-11-25T04:15:36.869Z,29.80
2022-11-25T04:18:04.534Z,31.13
2022-11-25T04:20:33.692Z,25.95
2022-11-25T04:23:07.880Z,26.17
2022-11-25T04:25:40.653Z,27.48
2022-11-25T04:28:12.839Z,27.90
2022-11-25T04:30:41.723Z,27.38
2022-11-25T04:33:09.586Z,28.02
2022-11-25T04:35:37.136Z,29.67
2022-11-25T04:38:04.749Z,28.08
2022-11-25T04:40:35.328Z,30.13
2022-11-25T04:43:13.488Z,28.42
2022-11-25T04:48:36.210Z,29.42
2022-11-25T04:51:04.640Z,28.67
2022-11-25T04:53:33.059Z,29.33
2022-11-25T04:56:00.645Z,26.17
2022-11-25T04:58:50.065Z,25.77
2022-11-25T05:01:17.810Z,27.17
2022-11-25T05:03:56.050Z,26.23
2022-11-25T05:06:26.967Z,27.15
2022-11-25T05:08:55.207Z,31.02
2022-11-25T05:11:25.340Z,28.70
2022-11-25T05:13:54.096Z,32.58
2022-11-25T05:16:21.787Z,28.52
2022-11-25T05:18:49.385Z,28.42
2022-11-25T05:21:17.567Z,28.65
2022-11-25T05:23:48.053Z,29.52
2022-11-25T05:26:17.286Z,28.13
2022-11-25T05:28:49.517Z,28.38
2022-11-25T05:31:17.151Z,30.85
2022-11-25T05:33:45.132Z,28.05
2022-11-25T05:36:12.758Z,28.33
2022-11-25T05:38:46.444Z,28.25
2022-11-25T05:41:19.548Z,29.90
2022-11-25T05:43:47.897Z,29.20
2022-11-25T05:46:16.167Z,30.17
2022-11-25T05:48:48.705Z,27.48
2022-11-25T05:51:16.310Z,29.35
2022-11-25T05:53:43.907Z,28.25
2022-11-25T05:56:11.513Z,28.50
2022-11-25T05:58:59.526Z,26.90
2022-11-25T06:01:34.962Z,30.10
2022-11-25T06:04:03.270Z,29.70
2022-11-25T06:06:31.002Z,30.02
2022-11-25T06:08:58.727Z,29.67
2022-11-25T06:11:26.648Z,25.75
2022-11-25T06:13:54.242Z,28.83
2022-11-25T06:16:23.505Z,26.70
2022-11-25T06:19:05.624Z,28.80
2022-11-25T06:21:33.996Z,28.15
2022-11-25T06:24:01.749Z,29.85
2022-11-25T06:26:31.146Z,29.08
2022-11-25T06:28:58.940Z,32.20
2022-11-25T06:31:27.260Z,30.95
2022-11-25T06:34:06.522Z,32.13
2022-11-25T06:36:34.428Z,32.20
2022-11-25T06:39:02.026Z,37.35
2022-11-25T06:41:29.597Z,34.65
2022-11-25T06:43:57.204Z,41.38
2022-11-25T06:46:25.564Z,35.63
2022-11-25T06:48:54.135Z,28.88
2022-11-25T06:51:21.761Z,30.80
2022-11-25T06:53:49.681Z,31.25
2022-11-25T06:56:18.633Z,31.73
2022-11-25T06:58:46.546Z,29.27
2022-11-25T07:01:15.725Z,31.67
2022-11-25T07:03:47.741Z,29.77
2022-11-25T07:06:16.039Z,34.78
2022-11-25T07:08:44.233Z,29.05
2022-11-25T07:11:19.653Z,31.30
2022-11-25T07:13:47.748Z,27.60
2022-11-25T07:16:15.638Z,26.98
2022-11-25T07:18:43.249Z,25.63
2022-11-25T07:21:16.089Z,27.90
2022-11-25T07:23:44.375Z,30.20
2022-11-25T07:26:13.752Z,36.63
2022-11-25T07:28:41.583Z,34.70
2022-11-25T07:31:23.386Z,29.38
2022-11-25T07:33:53.148Z,30.13
2022-11-25T07:36:20.798Z,32.33
2022-11-25T07:38:48.669Z,32.58
2022-11-25T07:41:17.759Z,29.13
2022-11-25T07:43:46.081Z,26.25
2022-11-25T07:46:21.995Z,24.00
2022-11-25T07:48:53.681Z,23.50
2022-11-25T07:51:40.733Z,24.38
2022-11-25T07:54:08.976Z,28.27
2022-11-25T07:56:37.785Z,23.85
2022-11-25T07:59:06.062Z,26.67
2022-11-25T08:01:33.825Z,26.95
2022-11-25T08:04:01.535Z,28.40
2022-11-25T08:06:29.775Z,32.58
2022-11-25T08:08:58.230Z,31.40
2022-11-25T08:11:27.128Z,33.08
2022-11-25T08:13:55.190Z,30.23
2022-11-25T08:16:24.271Z,35.95
2022-11-25T08:18:51.944Z,31.70
2022-11-25T08:21:19.735Z,31.88
2022-11-25T08:23:48.850Z,37.00
2022-11-25T08:26:30.649Z,36.60
2022-11-25T08:28:58.683Z,31.77
2022-11-25T08:31:27.998Z,33.30
2022-11-25T08:33:55.782Z,31.92
2022-11-25T08:36:23.570Z,29.60
2022-11-25T08:38:52.425Z,27.92
2022-11-25T08:41:21.842Z,30.35
2022-11-25T08:43:49.768Z,26.50
2022-11-25T08:46:19.181Z,29.08
2022-11-25T08:48:46.746Z,27.88
2022-11-25T08:51:15.893Z,32.72
2022-11-25T08:53:43.906Z,28.02
2022-11-25T08:56:11.590Z,24.15
2022-11-25T08:58:41.930Z,31.25
2022-11-25T09:01:10.717Z,25.90
2022-11-25T09:03:40.062Z,29.50
2022-11-25T09:06:08.469Z,31.50
2022-11-25T09:08:37.520Z,26.77
2022-11-25T09:11:05.729Z,32.45
2022-11-25T09:13:33.547Z,29.50
2022-11-25T09:16:02.018Z,25.30
2022-11-25T09:18:30.465Z,25.98
2022-11-25T09:20:58.236Z,31.00
2022-11-25T09:23:26.903Z,26.63
2022-11-25T09:25:55.173Z,26.38
2022-11-25T09:28:23.327Z,23.73
2022-11-25T09:30:51.133Z,24.80
2022-11-25T09:33:19.623Z,25.95
2022-11-25T09:35:48.534Z,24.48
2022-11-25T09:38:16.133Z,26.20
2022-11-25T09:40:49.932Z,22.95
2022-11-25T09:43:51.419Z,22.98
2022-11-25T09:46:45.842Z,25.15
2022-11-25T09:49:34.028Z,21.50
2022-11-25T09:52:01.822Z,23.55
2022-11-25T09:54:58.646Z,23.52
2022-11-25T09:57:30.266Z,24.83
2022-11-25T10:00:00.662Z,26.05
2022-11-25T10:02:40.747Z,27.15
2022-11-25T10:05:24.208Z,23.42
2022-11-25T10:07:53.790Z,26.65
2022-11-25T10:10:51.073Z,24.13
2022-11-25T10:13:27.826Z,23.77
2022-11-25T10:15:58.575Z,22.88
2022-11-25T10:18:30.039Z,24.75
2022-11-25T10:20:57.658Z,24.55
2022-11-25T10:23:28.677Z,21.67
2022-11-25T10:25:58.863Z,23.38
2022-11-25T10:28:34.203Z,19.92
2022-11-25T10:31:07.164Z,17.48
2022-11-25T10:33:39.337Z,16.98
2022-11-25T10:36:22.330Z,16.65
2022-11-25T10:38:55.893Z,18.77
2022-11-25T10:41:25.246Z,14.55
2022-11-25T10:43:52.786Z,15.35
2022-11-25T10:47:11.618Z,15.98
2022-11-25T10:49:26.251Z,14.30
2022-11-25T10:51:54.802Z,16.73
2022-11-25T10:54:27.852Z,16.58
2022-11-25T10:56:57.032Z,15.10
2022-11-25T10:59:26.240Z,14.18
2022-11-25T11:01:54.932Z,21.52
2022-11-25T11:04:22.778Z,14.63
2022-11-25T11:06:51.150Z,15.00
2022-11-25T11:09:31.153Z,14.00
2022-11-25T11:11:58.773Z,18.95
2022-11-25T11:14:29.991Z,14.77
2022-11-25T11:16:58.227Z,17.38
2022-11-25T11:19:28.028Z,16.20
2022-11-25T11:21:56.583Z,16.17
2022-11-25T11:24:26.190Z,17.50
2022-11-25T11:27:02.304Z,15.02
2022-11-25T11:29:29.918Z,19.55
2022-11-25T11:32:02.109Z,15.07
2022-11-25T11:34:29.685Z,17.50
2022-11-25T11:37:09.392Z,15.32
2022-11-25T11:40:00.012Z,16.35
2022-11-25T11:42:27.816Z,17.70
2022-11-25T11:45:14.453Z,15.50
2022-11-25T11:48:00.766Z,16.25
2022-11-25T11:50:28.376Z,14.82
2022-11-25T11:52:56.042Z,19.48
2022-11-25T11:55:29.480Z,15.75
2022-11-25T11:57:59.852Z,15.35
2022-11-25T12:00:30.458Z,16.20
2022-11-25T12:02:58.012Z,16.38
2022-11-25T12:05:28.040Z,14.93
2022-11-25T12:08:01.514Z,15.48
2022-11-25T12:10:39.198Z,15.48
2022-11-25T12:13:12.824Z,14.32
2022-11-25T12:15:52.091Z,14.05
2022-11-25T12:18:38.321Z,10.93
2022-11-25T12:21:08.242Z,12.00
2022-11-25T12:23:51.114Z,12.25
2022-11-25T12:26:21.798Z,14.13
2022-11-25T12:28:55.390Z,15.27
2022-11-25T12:31:27.490Z,10.85
2022-11-25T12:34:14.627Z,12.43
2022-11-25T12:36:44.353Z,9.82
2022-11-25T12:39:22.583Z,9.43
2022-11-25T12:41:58.495Z,8.23
2022-11-25T12:44:35.739Z,7.80
2022-11-25T12:47:03.826Z,13.25
2022-11-25T12:49:33.292Z,9.50
2022-11-25T12:52:17.594Z,14.05
2022-11-25T12:55:03.933Z,8.40
2022-11-25T12:57:50.995Z,9.65
2022-11-25T13:00:41.560Z,10.40
2022-11-25T13:03:28.820Z,8.85
2022-11-25T13:06:16.307Z,11.63
2022-11-25T13:08:46.578Z,9.75
2022-11-25T13:11:32.237Z,8.68
2022-11-25T13:14:00.402Z,11.00
2022-11-25T13:16:29.264Z,10.63
2022-11-25T13:18:57.445Z,9.23
2022-11-25T13:21:27.391Z,9.70
2022-11-25T13:23:57.066Z,9.00
2022-11-25T13:26:39.174Z,8.95
2022-11-25T13:29:22.623Z,10.73
2022-11-25T13:32:00.795Z,10.05
2022-11-25T13:34:31.729Z,11.32
2022-11-25T13:37:00.141Z,10.00
2022-11-25T13:39:34.174Z,9.48
2022-11-25T13:42:03.519Z,13.57
2022-11-25T13:44:35.984Z,8.88
2022-11-25T13:47:25.154Z,12.98
2022-11-25T13:49:57.080Z,9.60
2022-11-25T13:52:33.690Z,12.38
2022-11-25T13:55:04.519Z,13.85
2022-11-25T13:57:36.635Z,10.85
2022-11-25T14:00:10.110Z,12.40
2022-11-25T14:02:49.448Z,13.35
2022-11-25T14:05:36.184Z,15.35
2022-11-25T14:08:20.665Z,12.73
2022-11-25T14:10:58.978Z,12.32
2022-11-25T14:13:45.940Z,11.73
2022-11-25T14:16:23.683Z,12.60
2022-11-25T14:19:35.246Z,10.93
2022-11-25T14:22:03.553Z,11.90
2022-11-25T14:27:00.023Z,10.35
2022-11-25T14:29:33.910Z,14.15
2022-11-25T14:32:07.988Z,12.70
2022-11-25T14:34:57.320Z,13.68
2022-11-25T14:37:28.780Z,12.35
2022-11-25T14:39:58.724Z,13.52
2022-11-25T14:42:28.128Z,14.02
2022-11-25T14:44:58.234Z,12.48
2022-11-25T14:47:27.480Z,15.30
2022-11-25T14:50:18.955Z,13.55
2022-11-25T14:52:44.157Z,14.50
2022-11-25T14:55:12.265Z,14.85
2022-11-25T14:57:42.035Z,15.15
2022-11-25T15:00:11.226Z,14.70
2022-11-25T15:02:42.455Z,14.52
2022-11-25T15:05:20.351Z,16.65
2022-11-25T15:07:59.064Z,16.83
2022-11-25T15:10:29.472Z,16.77
2022-11-25T15:12:57.030Z,14.98
2022-11-25T15:15:26.338Z,17.08
2022-11-25T15:17:55.284Z,17.92
2022-11-25T15:20:24.044Z,18.85
2022-11-25T15:22:52.593Z,15.13
2022-11-25T15:25:20.188Z,16.45
2022-11-25T15:27:51.944Z,17.52
2022-11-25T15:30:20.121Z,15.52
2022-11-25T15:32:47.743Z,16.95
2022-11-25T15:35:19.850Z,17.65
2022-11-25T15:37:48.219Z,17.15
2022-11-25T15:40:40.692Z,18.17
2022-11-25T15:43:21.411Z,15.85
2022-11-25T15:45:50.268Z,18.13
2022-11-25T15:48:21.567Z,18.90
2022-11-25T15:50:49.408Z,20.23
2022-11-25T15:53:25.630Z,21.85
2022-11-25T15:56:00.418Z,24.98
2022-11-25T15:58:28.091Z,23.27
2022-11-25T16:01:02.731Z,22.20
2022-11-25T16:03:32.212Z,21.15
2022-11-25T16:06:00.989Z,19.50
2022-11-25T16:08:32.223Z,22.17
2022-11-25T16:11:01.194Z,20.00
2022-11-25T16:13:33.450Z,22.35
2022-11-25T16:16:01.052Z,19.60
2022-11-25T16:18:40.114Z,18.33
2022-11-25T16:21:29.458Z,18.92
2022-11-25T16:24:05.917Z,20.05
2022-11-25T16:26:38.824Z,24.90
2022-11-25T16:29:15.434Z,21.15
2022-11-25T16:31:43.111Z,20.23
2022-11-25T16:34:18.002Z,18.33
2022-11-25T16:36:45.584Z,22.02
2022-11-25T16:39:13.818Z,19.88
2022-11-25T16:41:41.867Z,22.52
2022-11-25T16:44:18.151Z,19.63
2022-11-25T16:46:46.410Z,21.42
2022-11-25T16:49:14.813Z,23.02
2022-11-25T16:51:42.508Z,23.83
2022-11-25T16:54:10.160Z,24.63
2022-11-25T16:56:39.953Z,25.85
2022-11-25T16:59:10.074Z,23.40
2022-11-25T17:01:37.681Z,22.20
2022-11-25T17:04:05.447Z,21.20
2022-11-25T17:06:33.053Z,21.13
2022-11-25T17:09:00.598Z,24.65
2022-11-25T17:11:32.820Z,24.80
2022-11-25T17:14:04.548Z,22.05
2022-11-25T17:16:35.061Z,23.05
2022-11-25T17:19:02.942Z,22.48
2022-11-25T17:21:33.396Z,24.25
2022-11-25T17:24:02.898Z,24.83
2022-11-25T17:26:40.917Z,21.30
2022-11-25T17:29:09.652Z,23.13
2022-11-25T17:31:38.165Z,23.05
2022-11-25T17:34:05.875Z,26.20
2022-11-25T17:36:33.472Z,23.63
2022-11-25T17:39:01.453Z,29.27
2022-11-25T17:41:29.697Z,27.38
2022-11-25T17:44:06.568Z,27.80
2022-11-25T17:46:34.157Z,23.92
2022-11-25T17:49:01.813Z,27.88
2022-11-25T17:51:29.385Z,24.90
2022-11-25T17:53:59.963Z,26.83
2022-11-25T17:56:32.431Z,30.90
2022-11-25T17:59:07.842Z,27.55
2022-11-25T18:01:35.651Z,29.57
2022-11-25T18:04:22.570Z,32.92
2022-11-25T18:06:50.620Z,34.38
2022-11-25T18:09:18.756Z,33.50
2022-11-25T18:11:51.305Z,37.97
2022-11-25T18:14:29.172Z,30.67
2022-11-25T18:16:58.627Z,35.60
2022-11-25T18:19:26.432Z,35.60
2022-11-25T18:21:53.983Z,33.25
2022-11-25T18:24:21.666Z,34.40
2022-11-25T18:26:50.548Z,35.97
2022-11-25T18:29:22.303Z,36.83
2022-11-25T18:31:50.749Z,34.30
2022-11-25T18:34:18.935Z,37.83
2022-11-25T18:36:46.542Z,40.15
2022-11-25T18:39:14.185Z,36.30
2022-11-25T18:41:42.597Z,39.50
2022-11-25T18:44:29.110Z,39.70
2022-11-25T18:46:56.814Z,35.50
2022-11-25T18:49:24.348Z,35.70
2022-11-25T18:51:51.905Z,37.58
2022-11-25T18:54:19.810Z,39.75
2022-11-25T18:56:50.678Z,40.88
2022-11-25T18:59:20.405Z,36.30
2022-11-25T19:01:49.976Z,35.90
2022-11-25T19:04:18.164Z,36.38
2022-11-25T19:06:45.841Z,35.35
2022-11-25T19:09:13.479Z,35.10
2022-11-25T19:11:46.176Z,41.97
2022-11-25T19:14:34.198Z,40.50
2022-11-25T19:17:18.261Z,41.33
2022-11-25T19:19:47.447Z,35.10
2022-11-25T19:22:16.221Z,42.75
2022-11-25T19:24:44.686Z,40.92
2022-11-25T19:27:21.543Z,41.22
2022-11-25T19:29:49.187Z,40.92
2022-11-25T19:32:25.973Z,40.45
2022-11-25T19:35:16.439Z,51.90
2022-11-25T19:37:44.710Z,45.83
2022-11-25T19:40:16.619Z,49.13
2022-11-25T19:42:48.651Z,41.72
2022-11-25T19:45:17.714Z,47.03
2022-11-25T19:47:46.159Z,44.60
2022-11-25T19:50:20.788Z,38.10
2022-11-25T19:52:49.833Z,42.15
2022-11-25T19:55:19.385Z,41.67
2022-11-25T19:57:47.588Z,46.80
2022-11-25T20:00:16.795Z,57.97
2022-11-25T20:02:45.352Z,54.30
2022-11-25T20:05:39.521Z,49.13
2022-11-25T20:08:11.602Z,44.90
2022-11-25T20:10:41.319Z,51.83
2022-11-25T20:13:10.527Z,45.38
2022-11-25T20:15:39.204Z,44.03
2022-11-25T20:18:06.878Z,44.30
2022-11-25T20:20:35.480Z,41.10
2022-11-25T20:23:06.362Z,48.83
2022-11-25T20:25:41.179Z,50.45
2022-11-25T20:28:21.524Z,48.38
2022-11-25T20:30:50.257Z,49.05
2022-11-25T20:36:59.614Z,45.78
2022-11-25T20:43:34.447Z,45.60
2022-11-25T20:46:03.814Z,46.83
2022-11-25T20:48:32.304Z,46.72
2022-11-25T20:51:03.537Z,42.60
2022-11-25T20:53:32.431Z,40.05
2022-11-25T20:56:00.473Z,41.65
2022-11-25T20:58:32.418Z,41.50
2022-11-25T21:01:00.475Z,42.67
2022-11-25T21:03:28.346Z,40.38
2022-11-25T21:05:57.975Z,50.13
2022-11-25T21:08:27.625Z,43.22
2022-11-25T21:10:56.716Z,41.70
2022-11-25T21:13:26.568Z,45.13
2022-11-25T21:16:20.271Z,40.80
2022-11-25T21:18:48.412Z,42.55
2022-11-25T21:21:24.699Z,43.50
2022-11-25T21:23:52.825Z,40.60
2022-11-25T21:26:21.862Z,43.97
2022-11-25T21:28:51.757Z,44.85
2022-11-25T21:31:21.316Z,45.85
2022-11-25T21:33:50.542Z,47.83
2022-11-25T21:36:45.929Z,46.38
2022-11-25T21:39:21.806Z,48.00
2022-11-25T21:41:51.320Z,48.28
2022-11-25T21:45:13.241Z,49.88
2022-11-25T21:48:06.361Z,54.83
2022-11-25T21:54:30.625Z,46.53
2022-11-25T21:57:32.374Z,43.22
2022-11-25T22:00:00.219Z,37.97
2022-11-25T22:02:28.269Z,42.53
2022-11-25T22:04:56.728Z,42.55
2022-11-25T22:07:30.415Z,42.75
2022-11-25T22:09:58.460Z,41.45
2022-11-25T22:12:28.979Z,38.92
2022-11-25T22:14:58.514Z,35.00
2022-11-25T22:17:26.602Z,35.78
2022-11-25T22:21:02.772Z,37.95
2022-11-25T22:22:48.825Z,36.15
2022-11-25T22:26:00.155Z,41.00
2022-11-25T22:28:31.508Z,39.38
2022-11-25T22:31:02.046Z,40.30
2022-11-25T22:33:31.508Z,35.67
2022-11-25T22:35:59.096Z,35.00
2022-11-25T22:38:28.388Z,38.25
2022-11-25T22:40:59.086Z,37.80
2022-11-25T22:43:28.525Z,35.65
2022-11-25T22:45:57.029Z,40.17
2022-11-25T22:48:31.340Z,34.58
2022-11-25T22:50:59.537Z,41.85
2022-11-25T22:53:27.333Z,33.20
2022-11-25T22:55:58.511Z,38.30
2022-11-25T22:58:27.115Z,35.80
2022-11-25T23:00:55.479Z,41.33
2022-11-25T23:03:24.294Z,35.45
2022-11-25T23:05:52.747Z,37.70
2022-11-25T23:08:24.437Z,31.45
2022-11-25T23:10:52.760Z,34.60
2022-11-25T23:13:20.649Z,40.13
2022-11-25T23:15:50.171Z,39.85
2022-11-25T23:18:21.464Z,39.50
2022-11-25T23:20:49.410Z,39.92
2022-11-25T23:23:18.437Z,42.97
2022-11-25T23:25:46.422Z,38.85
2022-11-25T23:28:14.229Z,37.17
2022-11-25T23:30:45.467Z,36.40
2022-11-25T23:33:18.056Z,36.70
2022-11-25T23:35:45.658Z,36.28
2022-11-25T23:38:42.128Z,32.40
2022-11-25T23:41:20.984Z,34.78
2022-11-25T23:43:48.655Z,36.10
2022-11-25T23:46:17.291Z,36.83
2022-11-25T23:48:46.956Z,36.97
2022-11-25T23:51:14.587Z,36.40
2022-11-25T23:53:42.281Z,35.90
2022-11-25T23:56:09.871Z,34.63
2022-11-25T23:58:37.656Z,39.30
